createdAt,value
2022-08-10T00:01:40.333Z,15.00
2022-08-10T00:04:08.531Z,15.00
2022-08-10T00:06:37.301Z,14.90
2022-08-10T00:09:06.904Z,14.90
2022-08-10T00:11:35.020Z,15.00
2022-08-10T00:14:03.352Z,14.90
2022-08-10T00:16:31.535Z,14.90
2022-08-10T00:18:59.608Z,14.90
2022-08-10T00:21:27.598Z,14.80
2022-08-10T00:23:55.980Z,14.80
2022-08-10T00:26:25.392Z,14.70
2022-08-10T00:28:54.196Z,14.70
2022-08-10T00:31:22.281Z,14.60
2022-08-10T00:33:50.362Z,14.60
2022-08-10T00:36:18.373Z,14.60
2022-08-10T00:38:46.427Z,14.60
2022-08-10T00:41:14.468Z,14.60
2022-08-10T00:43:43.858Z,14.60
2022-08-10T00:46:11.903Z,14.60
2022-08-10T00:48:39.922Z,14.60
2022-08-10T00:51:08.063Z,14.60
2022-08-10T00:53:36.179Z,14.60
2022-08-10T00:57:12.798Z,14.60
2022-08-10T00:58:54.344Z,14.60
2022-08-10T01:02:10.673Z,14.60
2022-08-10T01:04:36.554Z,14.50
2022-08-10T01:07:17.785Z,14.60
2022-08-10T01:09:56.966Z,14.50
2022-08-10T01:12:40.378Z,14.50
2022-08-10T01:15:26.459Z,14.50
2022-08-10T01:17:59.598Z,14.50
2022-08-10T01:20:36.811Z,14.40
2022-08-10T01:23:37.031Z,14.40
2022-08-10T01:26:31.917Z,14.30
2022-08-10T01:29:19.967Z,14.20
2022-08-10T01:31:54.818Z,14.10
2022-08-10T01:34:28.389Z,14.10
2022-08-10T01:37:00.925Z,14.00
2022-08-10T01:39:34.265Z,14.00
2022-08-10T01:42:04.232Z,14.00
2022-08-10T01:44:36.652Z,14.00
2022-08-10T01:47:27.526Z,14.00
2022-08-10T01:50:01.904Z,14.00
2022-08-10T01:52:32.051Z,14.00
2022-08-10T01:55:00.619Z,14.00
2022-08-10T01:57:32.491Z,13.90
2022-08-10T02:00:03.509Z,13.90
2022-08-10T02:02:36.385Z,13.90
2022-08-10T02:05:07.714Z,13.90
2022-08-10T02:07:38.744Z,13.90
2022-08-10T02:10:11.734Z,13.90
2022-08-10T02:12:41.987Z,13.90
2022-08-10T02:15:14.220Z,13.90
2022-08-10T02:17:59.192Z,13.90
2022-08-10T02:20:34.431Z,13.90
2022-08-10T02:23:05.540Z,13.90
2022-08-10T02:25:41.122Z,13.90
2022-08-10T02:28:27.528Z,13.90
2022-08-10T02:31:02.426Z,13.80
2022-08-10T02:33:37.374Z,13.70
2022-08-10T02:36:08.753Z,13.70
2022-08-10T02:38:58.822Z,13.70
2022-08-10T02:45:03.059Z,13.70
2022-08-10T02:45:27.118Z,13.70
2022-08-10T02:47:21.260Z,13.60
2022-08-10T02:49:56.969Z,13.60
2022-08-10T02:52:33.184Z,13.60
2022-08-10T02:55:18.270Z,13.60
2022-08-10T02:58:13.378Z,13.60
2022-08-10T03:00:43.693Z,13.50
2022-08-10T03:03:16.164Z,13.50
2022-08-10T03:05:48.743Z,13.50
2022-08-10T03:08:22.338Z,13.50
2022-08-10T03:10:51.831Z,13.40
2022-08-10T03:13:21.003Z,13.40
2022-08-10T03:15:51.502Z,13.40
2022-08-10T03:18:21.101Z,13.40
2022-08-10T03:20:50.923Z,13.40
2022-08-10T03:23:20.597Z,13.30
2022-08-10T03:25:53.110Z,13.30
2022-08-10T03:28:23.728Z,13.30
2022-08-10T03:30:52.519Z,13.20
2022-08-10T03:33:22.039Z,13.20
2022-08-10T03:36:40.661Z,13.20
2022-08-10T03:38:41.459Z,13.20
2022-08-10T03:41:16.460Z,13.20
2022-08-10T03:43:47.922Z,13.20
2022-08-10T03:46:18.172Z,13.20
2022-08-10T03:48:49.727Z,13.20
2022-08-10T03:51:21.097Z,13.20
2022-08-10T03:54:06.192Z,13.20
2022-08-10T03:56:39.708Z,13.20
2022-08-10T03:59:09.932Z,13.20
2022-08-10T04:02:44.421Z,13.20
2022-08-10T04:04:26.444Z,13.20
2022-08-10T04:06:57.436Z,13.20
2022-08-10T04:09:43.447Z,13.20
2022-08-10T04:12:16.675Z,13.10
2022-08-10T04:14:50.850Z,13.10
2022-08-10T04:18:02.901Z,13.10
2022-08-10T04:20:18.410Z,13.10
2022-08-10T04:22:50.649Z,13.10
2022-08-10T04:25:19.379Z,13.30
2022-08-10T04:28:03.710Z,13.20
2022-08-10T04:30:49.445Z,13.10
2022-08-10T04:39:43.468Z,13.20
2022-08-10T04:42:25.503Z,13.20
2022-08-10T04:45:49.081Z,13.20
2022-08-10T04:55:01.942Z,13.40
2022-08-10T04:57:42.814Z,13.40
2022-08-10T05:00:29.838Z,13.40
2022-08-10T05:05:40.045Z,13.50
2022-08-10T05:08:08.428Z,13.60
2022-08-10T05:10:37.925Z,13.60
2022-08-10T05:13:06.030Z,13.60
2022-08-10T05:15:53.570Z,13.70
2022-08-10T05:18:21.731Z,13.70
2022-08-10T05:20:50.281Z,13.80
2022-08-10T05:23:18.399Z,13.80
2022-08-10T05:25:47.881Z,13.90
2022-08-10T05:28:16.007Z,14.00
2022-08-10T05:30:44.290Z,14.00
2022-08-10T05:33:12.466Z,14.10
2022-08-10T05:35:57.058Z,14.20
2022-08-10T05:38:27.663Z,14.30
2022-08-10T05:40:58.273Z,14.30
2022-08-10T05:43:26.382Z,14.50
2022-08-10T05:46:19.743Z,14.50
2022-08-10T05:48:59.252Z,14.60
2022-08-10T05:51:29.833Z,14.70
2022-08-10T05:54:02.200Z,14.80
2022-08-10T05:56:53.330Z,14.90
2022-08-10T06:00:33.033Z,15.00
2022-08-10T06:02:32.782Z,15.20
2022-08-10T06:05:07.258Z,15.30
2022-08-10T06:07:39.079Z,15.40
2022-08-10T06:10:10.672Z,15.50
2022-08-10T06:12:54.967Z,15.60
2022-08-10T06:15:50.274Z,15.70
2022-08-10T06:18:15.588Z,15.80
2022-08-10T06:20:44.648Z,16.00
2022-08-10T06:23:13.846Z,16.10
2022-08-10T06:26:10.409Z,16.20
2022-08-10T06:28:38.828Z,16.30
2022-08-10T06:31:09.056Z,16.50
2022-08-10T06:33:40.523Z,16.60
2022-08-10T06:36:09.882Z,16.80
2022-08-10T06:38:40.838Z,16.90
2022-08-10T06:41:16.835Z,17.00
2022-08-10T06:43:54.843Z,17.20
2022-08-10T06:46:24.503Z,17.30
2022-08-10T06:48:56.326Z,17.50
2022-08-10T06:51:28.065Z,17.60
2022-08-10T06:53:59.510Z,17.70
2022-08-10T06:56:35.930Z,17.90
2022-08-10T06:59:13.255Z,18.00
2022-08-10T07:01:53.097Z,18.20
2022-08-10T07:04:32.372Z,18.40
2022-08-10T07:07:05.499Z,18.60
2022-08-10T07:09:37.674Z,18.80
2022-08-10T07:12:09.549Z,18.90
2022-08-10T07:14:44.464Z,19.10
2022-08-10T07:17:15.298Z,19.30
2022-08-10T07:19:50.229Z,19.40
2022-08-10T07:23:01.206Z,19.60
2022-08-10T07:25:13.626Z,19.70
2022-08-10T07:28:00.081Z,19.90
2022-08-10T07:30:32.617Z,20.10
2022-08-10T07:33:03.065Z,20.40
2022-08-10T07:35:42.647Z,20.60
2022-08-10T07:38:17.055Z,20.70
2022-08-10T07:40:46.384Z,20.90
2022-08-10T07:43:16.327Z,21.00
2022-08-10T07:45:47.765Z,21.20
2022-08-10T07:48:19.812Z,21.30
2022-08-10T07:50:49.332Z,21.70
2022-08-10T07:53:21.277Z,21.90
2022-08-10T07:56:05.101Z,22.20
2022-08-10T07:58:39.476Z,22.40
2022-08-10T08:01:18.871Z,22.70
2022-08-10T08:04:10.919Z,23.00
2022-08-10T08:06:38.879Z,23.30
2022-08-10T08:09:07.589Z,23.50
2022-08-10T08:11:37.494Z,23.70
2022-08-10T08:14:06.538Z,23.90
2022-08-10T08:16:37.412Z,24.10
2022-08-10T08:24:09.713Z,24.50
2022-08-10T08:24:44.281Z,24.90
2022-08-10T08:27:15.277Z,25.40
2022-08-10T08:29:46.603Z,25.90
2022-08-10T08:32:18.823Z,26.40
2022-08-10T08:34:48.098Z,27.00
2022-08-10T08:38:32.798Z,27.60
2022-08-10T08:40:13.009Z,28.10
2022-08-10T08:43:15.327Z,28.90
2022-08-10T08:46:01.878Z,29.30
2022-08-10T08:49:09.650Z,30.00
2022-08-10T08:52:09.357Z,30.60
2022-08-10T08:54:46.589Z,30.80
2022-08-10T08:57:45.674Z,31.30
2022-08-10T09:00:17.484Z,31.60
2022-08-10T09:03:08.730Z,32.20
2022-08-10T09:05:58.385Z,32.70
2022-08-10T09:08:49.734Z,33.00
2022-08-10T09:11:31.570Z,33.20
2022-08-10T09:14:06.305Z,33.00
2022-08-10T09:16:44.940Z,33.50
2022-08-10T09:19:34.892Z,33.70
2022-08-10T09:22:18.353Z,33.90
2022-08-10T09:24:53.034Z,34.30
2022-08-10T09:27:23.105Z,34.50
2022-08-10T09:29:56.369Z,34.40
2022-08-10T09:36:14.338Z,34.50
2022-08-10T09:36:29.472Z,34.70
2022-08-10T09:38:49.931Z,34.80
2022-08-10T09:41:32.078Z,35.20
2022-08-10T09:44:12.962Z,35.10
2022-08-10T09:47:12.903Z,34.90
2022-08-10T09:49:55.792Z,34.90
2022-08-10T09:53:02.506Z,34.70
2022-08-10T09:56:28.693Z,34.60
2022-08-10T10:00:00.496Z,34.70
2022-08-10T10:05:05.898Z,34.30
2022-08-10T10:07:39.537Z,34.50
2022-08-10T10:10:13.190Z,34.70
2022-08-10T10:12:51.407Z,34.70
2022-08-10T10:15:31.314Z,34.70
2022-08-10T10:18:12.615Z,34.60
2022-08-10T10:20:46.012Z,34.80
2022-08-10T10:23:23.624Z,35.20
2022-08-10T10:26:05.017Z,35.60
2022-08-10T10:29:20.054Z,35.90
2022-08-10T10:31:53.995Z,36.20
2022-08-10T10:34:34.327Z,36.40
2022-08-10T10:37:06.480Z,36.60
2022-08-10T10:39:37.032Z,36.60
2022-08-10T10:42:42.284Z,36.70
2022-08-10T10:45:19.255Z,36.80
2022-08-10T10:48:03.213Z,36.90
2022-08-10T10:50:41.941Z,36.90
2022-08-10T10:53:19.104Z,36.80
2022-08-10T10:56:15.284Z,36.90
2022-08-10T10:58:50.551Z,36.70
2022-08-10T11:01:36.947Z,37.00
2022-08-10T11:04:19.468Z,37.10
2022-08-10T11:06:58.210Z,37.40
2022-08-10T11:10:03.258Z,37.30
2022-08-10T11:12:40.689Z,37.50
2022-08-10T11:15:42.683Z,37.40
2022-08-10T11:18:25.363Z,37.10
2022-08-10T11:21:04.566Z,37.30
2022-08-10T11:23:40.373Z,37.30
2022-08-10T11:26:14.683Z,37.20
2022-08-10T11:28:47.283Z,37.30
2022-08-10T11:31:28.267Z,37.40
2022-08-10T11:34:47.519Z,37.60
2022-08-10T11:36:57.922Z,37.80
2022-08-10T11:39:36.343Z,37.80
2022-08-10T11:42:21.281Z,38.00
2022-08-10T11:45:02.806Z,37.50
2022-08-10T11:47:40.341Z,37.40
2022-08-10T11:50:22.049Z,37.50
2022-08-10T11:53:00.176Z,37.80
2022-08-10T11:55:32.785Z,37.70
2022-08-10T11:58:25.500Z,37.70
2022-08-10T12:00:54.665Z,37.40
2022-08-10T12:03:23.933Z,37.00
2022-08-10T12:05:56.054Z,37.00
2022-08-10T12:10:03.728Z,36.80
2022-08-10T12:11:23.860Z,36.60
2022-08-10T12:14:20.278Z,36.60
2022-08-10T12:16:51.237Z,36.20
2022-08-10T12:19:25.415Z,36.00
2022-08-10T12:22:05.899Z,35.50
2022-08-10T12:24:38.757Z,35.20
2022-08-10T12:27:13.056Z,34.60
2022-08-10T12:29:47.305Z,34.00
2022-08-10T12:32:25.390Z,33.30
2022-08-10T12:35:01.404Z,33.00
2022-08-10T12:37:39.805Z,32.40
2022-08-10T12:40:34.460Z,32.20
2022-08-10T12:44:04.022Z,32.20
2022-08-10T12:46:06.707Z,32.20
2022-08-10T12:48:40.341Z,32.40
2022-08-10T12:51:14.411Z,32.70
2022-08-10T12:53:50.998Z,33.50
2022-08-10T12:56:25.312Z,34.10
2022-08-10T12:58:57.305Z,34.90
2022-08-10T13:02:07.711Z,35.10
2022-08-10T13:04:28.630Z,35.30
2022-08-10T13:07:00.125Z,35.80
2022-08-10T13:09:30.609Z,36.20
2022-08-10T13:12:36.393Z,36.20
2022-08-10T13:14:55.569Z,36.90
2022-08-10T13:17:38.789Z,37.60
2022-08-10T13:20:20.822Z,37.90
2022-08-10T13:22:50.725Z,38.50
2022-08-10T13:25:29.368Z,38.70
2022-08-10T13:28:34.763Z,39.20
2022-08-10T13:30:52.176Z,39.50
2022-08-10T13:34:39.726Z,40.30
2022-08-10T13:36:17.433Z,40.60
2022-08-10T13:38:48.765Z,40.50
2022-08-10T13:41:19.505Z,40.50
2022-08-10T13:43:53.487Z,39.80
2022-08-10T13:46:23.472Z,39.70
2022-08-10T13:48:53.337Z,39.40
2022-08-10T13:51:53.439Z,39.10
2022-08-10T13:54:14.768Z,39.40
2022-08-10T13:56:46.043Z,38.80
2022-08-10T13:59:16.241Z,38.40
2022-08-10T14:01:50.810Z,38.00
2022-08-10T14:04:20.392Z,37.90
2022-08-10T14:06:54.911Z,37.60
2022-08-10T14:09:28.570Z,37.60
2022-08-10T14:12:00.001Z,37.20
2022-08-10T14:14:30.287Z,36.80
2022-08-10T14:16:59.687Z,36.60
2022-08-10T14:19:30.999Z,36.50
2022-08-10T14:22:01.393Z,36.30
2022-08-10T14:24:31.415Z,36.10
2022-08-10T14:27:06.783Z,36.10
2022-08-10T14:29:42.579Z,36.30
2022-08-10T14:32:12.941Z,35.80
2022-08-10T14:36:15.372Z,35.60
2022-08-10T14:37:37.765Z,35.10
2022-08-10T14:40:10.807Z,34.60
2022-08-10T14:42:48.189Z,34.20
2022-08-10T14:45:23.170Z,34.20
2022-08-10T14:47:59.624Z,34.50
2022-08-10T14:50:33.386Z,34.20
2022-08-10T14:53:05.586Z,33.90
2022-08-10T14:55:58.390Z,33.60
2022-08-10T14:58:32.870Z,33.60
2022-08-10T15:01:02.427Z,33.50
2022-08-10T15:04:01.199Z,33.60
2022-08-10T15:06:30.836Z,33.50
2022-08-10T15:09:12.235Z,33.40
2022-08-10T15:12:13.816Z,33.30
2022-08-10T15:14:42.862Z,33.20
2022-08-10T15:17:13.518Z,33.00
2022-08-10T15:20:03.002Z,33.00
2022-08-10T15:22:38.369Z,32.90
2022-08-10T15:25:18.330Z,32.70
2022-08-10T15:27:53.575Z,32.70
2022-08-10T15:30:30.714Z,32.60
2022-08-10T15:33:21.537Z,32.60
2022-08-10T15:36:27.826Z,32.50
2022-08-10T15:39:00.917Z,32.40
2022-08-10T15:41:57.441Z,32.30
2022-08-10T15:44:38.937Z,32.10
2022-08-10T15:47:15.283Z,32.00
2022-08-10T15:49:50.572Z,31.90
2022-08-10T15:53:00.024Z,31.80
2022-08-10T15:55:42.796Z,31.80
2022-08-10T15:58:08.784Z,31.80
2022-08-10T16:00:40.862Z,31.80
2022-08-10T16:03:18.075Z,31.60
2022-08-10T16:06:02.088Z,31.60
2022-08-10T16:08:56.208Z,31.60
2022-08-10T16:11:37.948Z,31.60
2022-08-10T16:14:15.886Z,31.50
2022-08-10T16:16:50.615Z,31.50
2022-08-10T16:19:25.103Z,31.30
2022-08-10T16:21:58.585Z,31.20
2022-08-10T16:24:30.956Z,31.00
2022-08-10T16:27:04.898Z,30.70
2022-08-10T16:29:55.891Z,30.70
2022-08-10T16:32:24.112Z,30.50
2022-08-10T16:34:56.383Z,30.30
2022-08-10T16:37:30.279Z,30.20
2022-08-10T16:40:20.593Z,29.90
2022-08-10T16:42:51.048Z,29.60
2022-08-10T16:45:23.412Z,29.30
2022-08-10T16:47:54.757Z,29.10
2022-08-10T16:50:27.847Z,28.90
2022-08-10T16:53:01.909Z,28.80
2022-08-10T16:55:47.467Z,28.70
2022-08-10T16:58:20.647Z,28.50
2022-08-10T17:00:51.134Z,28.30
2022-08-10T17:04:06.514Z,28.10
2022-08-10T17:06:21.964Z,28.00
2022-08-10T17:08:54.118Z,27.90
2022-08-10T17:11:28.394Z,27.70
2022-08-10T17:13:58.373Z,27.60
2022-08-10T17:16:34.267Z,27.40
2022-08-10T17:19:03.352Z,27.30
2022-08-10T17:21:38.778Z,27.10
2022-08-10T17:24:22.580Z,27.10
2022-08-10T17:26:51.910Z,27.00
2022-08-10T17:29:58.026Z,26.90
2022-08-10T17:32:20.179Z,26.80
2022-08-10T17:34:52.884Z,26.70
2022-08-10T17:37:27.157Z,26.70
2022-08-10T17:40:02.341Z,26.50
2022-08-10T17:42:31.611Z,26.40
2022-08-10T17:45:00.434Z,26.30
2022-08-10T17:47:28.872Z,26.30
2022-08-10T17:49:58.982Z,26.20
2022-08-10T17:52:31.838Z,26.10
2022-08-10T17:55:04.293Z,26.00
2022-08-10T17:57:37.734Z,25.90
2022-08-10T18:00:10.196Z,25.90
2022-08-10T18:02:41.786Z,25.80
2022-08-10T18:05:12.471Z,25.70
2022-08-10T18:07:47.545Z,25.60
2022-08-10T18:10:19.318Z,25.50
2022-08-10T18:12:50.008Z,25.40
2022-08-10T18:15:23.077Z,25.30
2022-08-10T18:17:59.318Z,25.20
2022-08-10T18:20:34.637Z,25.10
2022-08-10T18:23:05.417Z,25.00
2022-08-10T18:25:37.572Z,24.90
2022-08-10T18:28:10.613Z,24.80
2022-08-10T18:30:46.292Z,24.70
2022-08-10T18:33:15.618Z,24.50
2022-08-10T18:35:45.807Z,24.30
2022-08-10T18:38:17.223Z,24.10
2022-08-10T18:40:53.593Z,23.90
2022-08-10T18:44:07.645Z,23.70
2022-08-10T18:46:17.638Z,23.50
2022-08-10T18:48:50.693Z,23.30
2022-08-10T18:51:26.489Z,23.10
2022-08-10T18:54:03.200Z,23.00
2022-08-10T18:56:49.302Z,22.90
2022-08-10T18:59:39.318Z,22.80
2022-08-10T19:02:45.189Z,22.70
2022-08-10T19:05:30.562Z,22.60
2022-08-10T19:08:49.496Z,22.50
2022-08-10T19:11:36.425Z,22.30
2022-08-10T19:14:12.214Z,22.20
2022-08-10T19:16:48.886Z,22.10
2022-08-10T19:19:30.253Z,22.00
2022-08-10T19:22:05.914Z,21.90
2022-08-10T19:24:47.258Z,21.80
2022-08-10T19:27:35.226Z,21.70
2022-08-10T19:30:09.709Z,21.70
2022-08-10T19:32:53.659Z,21.60
2022-08-10T19:35:34.053Z,21.50
2022-08-10T19:38:32.925Z,21.40
2022-08-10T19:41:10.303Z,21.40
2022-08-10T19:44:00.594Z,21.30
2022-08-10T19:46:38.861Z,21.20
2022-08-10T19:49:17.463Z,21.20
2022-08-10T19:51:55.058Z,21.10
2022-08-10T19:54:32.609Z,21.00
2022-08-10T19:57:08.370Z,21.00
2022-08-10T20:00:05.874Z,20.90
2022-08-10T20:02:47.989Z,20.80
2022-08-10T20:05:26.562Z,20.80
2022-08-10T20:07:59.468Z,20.70
2022-08-10T20:10:36.487Z,20.70
2022-08-10T20:13:14.079Z,20.70
2022-08-10T20:15:47.589Z,20.60
2022-08-10T20:18:24.616Z,20.50
2022-08-10T20:20:59.224Z,20.50
2022-08-10T20:23:30.877Z,20.40
2022-08-10T20:26:03.501Z,20.30
2022-08-10T20:28:42.641Z,20.20
2022-08-10T20:31:18.034Z,20.10
2022-08-10T20:34:00.933Z,20.10
2022-08-10T20:36:32.931Z,20.00
2022-08-10T20:39:13.121Z,20.00
2022-08-10T20:41:51.923Z,19.90
2022-08-10T20:44:33.082Z,19.90
2022-08-10T20:47:14.212Z,19.80
2022-08-10T20:49:48.152Z,19.80
2022-08-10T20:52:16.628Z,19.80
2022-08-10T20:54:52.281Z,19.70
2022-08-10T20:58:04.783Z,19.70
2022-08-10T21:00:47.696Z,19.60
2022-08-10T21:03:33.806Z,19.60
2022-08-10T21:06:36.273Z,19.60
2022-08-10T21:09:30.851Z,19.50
2022-08-10T21:12:16.572Z,19.50
2022-08-10T21:14:53.708Z,19.50
2022-08-10T21:17:48.929Z,19.40
2022-08-10T21:20:35.942Z,19.30
2022-08-10T21:23:08.534Z,19.20
2022-08-10T21:25:47.802Z,19.20
2022-08-10T21:28:40.266Z,19.10
2022-08-10T21:31:36.958Z,19.00
2022-08-10T21:34:32.193Z,18.90
2022-08-10T21:37:17.652Z,18.90
2022-08-10T21:39:55.134Z,18.80
2022-08-10T21:42:53.991Z,18.80
2022-08-10T21:45:59.874Z,18.70
2022-08-10T21:48:57.651Z,18.70
2022-08-10T21:52:02.090Z,18.70
2022-08-10T21:55:00.631Z,18.60
2022-08-10T21:57:58.353Z,18.60
2022-08-10T22:00:44.416Z,18.50
2022-08-10T22:03:40.169Z,18.50
2022-08-10T22:06:27.708Z,18.40
2022-08-10T22:09:19.897Z,18.30
2022-08-10T22:12:31.185Z,18.30
2022-08-10T22:15:24.114Z,18.20
2022-08-10T22:18:33.127Z,18.10
2022-08-10T22:21:26.998Z,18.00
2022-08-10T22:24:33.075Z,18.00
2022-08-10T22:27:47.122Z,17.90
2022-08-10T22:30:36.186Z,17.80
2022-08-10T22:33:33.705Z,17.70
2022-08-10T22:36:39.667Z,17.60
2022-08-10T22:40:11.190Z,17.60
2022-08-10T22:42:58.115Z,17.50
2022-08-10T22:45:45.927Z,17.40
2022-08-10T22:48:31.620Z,17.40
2022-08-10T22:51:10.201Z,17.30
2022-08-10T22:54:03.156Z,17.30
2022-08-10T22:56:49.144Z,17.20
2022-08-10T22:59:30.430Z,17.00
2022-08-10T23:02:08.061Z,16.90
2022-08-10T23:04:45.626Z,16.90
2022-08-10T23:07:22.320Z,16.90
2022-08-10T23:09:57.691Z,16.80
2022-08-10T23:12:34.346Z,16.80
2022-08-10T23:15:24.344Z,16.80
2022-08-10T23:18:13.975Z,16.80
2022-08-10T23:20:44.037Z,16.70
2022-08-10T23:23:23.843Z,16.70
2022-08-10T23:25:57.423Z,16.60
2022-08-10T23:28:38.707Z,16.60
2022-08-10T23:31:58.264Z,16.50
2022-08-10T23:34:08.429Z,16.50
2022-08-10T23:36:41.004Z,16.40
2022-08-10T23:39:24.342Z,16.30
2022-08-10T23:42:01.780Z,16.30
2022-08-10T23:44:38.869Z,16.30
2022-08-10T23:47:10.220Z,16.30
2022-08-10T23:49:40.145Z,16.20
2022-08-10T23:52:14.372Z,16.20
2022-08-10T23:54:46.274Z,16.10
2022-08-10T23:57:18.965Z,16.00
2022-08-10T23:59:52.297Z,16.00
